createdAt,value
2019-04-28T00:00:51.072Z,18.23
2019-04-28T00:03:22.989Z,18.03
2019-04-28T00:05:55.270Z,17.30
2019-04-28T00:08:25.550Z,16.57
2019-04-28T00:10:56.115Z,16.40
2019-04-28T00:13:26.458Z,17.13
2019-04-28T00:15:58.358Z,16.87
2019-04-28T00:18:28.735Z,16.57
2019-04-28T00:21:17.032Z,16.63
2019-04-28T00:24:04.919Z,16.83
2019-04-28T00:27:11.510Z,17.47
2019-04-28T00:29:45.947Z,17.23
2019-04-28T00:32:14.008Z,17.67
2019-04-28T00:34:44.643Z,16.37
2019-04-28T00:37:24.262Z,16.90
2019-04-28T00:39:54.909Z,17.97
2019-04-28T00:42:25.154Z,16.87
2019-04-28T00:44:56.004Z,16.83
2019-04-28T00:47:26.386Z,17.13
2019-04-28T00:49:57.056Z,17.03
2019-04-28T00:52:27.478Z,18.33
2019-04-28T00:54:57.758Z,16.73
2019-04-28T00:57:28.634Z,17.23
2019-04-28T01:00:02.590Z,17.13
2019-04-28T01:02:43.930Z,16.53
2019-04-28T01:05:14.916Z,16.07
2019-04-28T01:07:45.214Z,16.03
2019-04-28T01:10:16.242Z,15.77
2019-04-28T01:12:46.816Z,16.53
2019-04-28T01:15:51.774Z,16.17
2019-04-28T01:18:43.638Z,15.93
2019-04-28T01:21:14.436Z,15.40
2019-04-28T01:23:44.742Z,15.27
2019-04-28T01:26:15.135Z,15.33
2019-04-28T01:28:46.570Z,15.53
2019-04-28T01:31:24.838Z,15.17
2019-04-28T01:34:15.056Z,13.97
2019-04-28T01:36:45.312Z,14.57
2019-04-28T01:39:15.685Z,14.97
2019-04-28T01:41:46.049Z,14.83
2019-04-28T01:44:16.758Z,14.87
2019-04-28T01:46:47.017Z,14.30
2019-04-28T01:49:19.980Z,15.93
2019-04-28T01:52:00.870Z,16.07
2019-04-28T01:54:32.310Z,16.03
2019-04-28T01:57:02.921Z,15.87
2019-04-28T01:59:33.169Z,16.07
2019-04-28T02:02:04.583Z,16.07
2019-04-28T02:04:34.792Z,16.00
2019-04-28T02:07:05.379Z,15.97
2019-04-28T02:09:35.645Z,16.43
2019-04-28T02:12:06.523Z,15.70
2019-04-28T02:14:36.819Z,15.50
2019-04-28T02:17:07.447Z,15.87
2019-04-28T02:19:37.709Z,15.53
2019-04-28T02:22:22.739Z,16.03
2019-04-28T02:24:52.989Z,14.00
2019-04-28T02:27:23.737Z,14.83
2019-04-28T02:29:54.108Z,14.83
2019-04-28T02:32:24.559Z,14.23
2019-04-28T02:34:55.204Z,15.67
2019-04-28T02:37:25.481Z,14.27
2019-04-28T02:39:55.740Z,14.83
2019-04-28T02:42:26.245Z,14.43
2019-04-28T02:45:00.267Z,14.07
2019-04-28T02:47:31.559Z,14.27
2019-04-28T02:50:11.157Z,15.40
2019-04-28T02:53:07.052Z,14.10
2019-04-28T02:55:37.342Z,15.10
2019-04-28T02:58:07.674Z,14.40
2019-04-28T03:00:37.963Z,13.73
2019-04-28T03:03:10.793Z,14.37
2019-04-28T03:05:41.225Z,14.63
2019-04-28T03:08:13.719Z,14.23
2019-04-28T03:10:43.967Z,15.77
2019-04-28T03:13:14.285Z,15.20
2019-04-28T03:15:44.950Z,15.40
2019-04-28T03:18:15.344Z,15.00
2019-04-28T03:20:45.735Z,14.73
2019-04-28T03:23:16.828Z,14.37
2019-04-28T03:26:15.168Z,14.60
2019-04-28T03:29:14.700Z,13.83
2019-04-28T03:32:22.970Z,13.23
2019-04-28T03:34:44.964Z,14.23
2019-04-28T03:37:15.233Z,13.33
2019-04-28T03:39:46.026Z,12.70
2019-04-28T03:42:16.602Z,13.77
2019-04-28T03:44:46.802Z,12.83
2019-04-28T03:47:21.110Z,12.77
2019-04-28T03:49:51.211Z,13.20
2019-04-28T03:52:21.906Z,12.50
2019-04-28T03:54:52.257Z,12.10
2019-04-28T03:57:22.524Z,12.73
2019-04-28T03:59:52.823Z,12.17
2019-04-28T04:02:23.938Z,16.63
2019-04-28T04:04:54.728Z,15.10
2019-04-28T04:07:24.945Z,15.47
2019-04-28T04:10:02.342Z,14.13
2019-04-28T04:12:47.766Z,14.60
2019-04-28T04:15:48.633Z,13.93
2019-04-28T04:18:21.283Z,14.07
2019-04-28T04:20:51.870Z,11.80
2019-04-28T04:23:23.289Z,11.20
2019-04-28T04:25:53.921Z,10.13
2019-04-28T04:28:24.462Z,9.93
2019-04-28T04:30:54.733Z,10.73
2019-04-28T04:33:24.984Z,9.57
2019-04-28T04:35:55.167Z,10.67
2019-04-28T04:38:25.592Z,8.93
2019-04-28T04:40:55.861Z,9.87
2019-04-28T04:43:26.378Z,9.13
2019-04-28T04:46:14.649Z,8.30
2019-04-28T04:48:45.826Z,9.07
2019-04-28T04:51:16.366Z,9.40
2019-04-28T04:53:46.646Z,9.07
2019-04-28T04:56:16.949Z,9.00
2019-04-28T04:58:47.323Z,8.97
2019-04-28T05:01:40.765Z,9.13
2019-04-28T05:04:34.096Z,9.07
2019-04-28T05:07:04.522Z,8.30
2019-04-28T05:09:34.769Z,8.30
2019-04-28T05:12:05.040Z,8.27
2019-04-28T05:14:35.310Z,8.30
2019-04-28T05:17:05.638Z,8.33
2019-04-28T05:19:36.038Z,8.10
2019-04-28T05:22:06.997Z,8.03
2019-04-28T05:24:46.245Z,7.90
2019-04-28T05:27:21.428Z,8.37
2019-04-28T05:29:51.157Z,8.57
2019-04-28T05:32:21.201Z,8.17
2019-04-28T05:34:52.910Z,8.17
2019-04-28T05:37:23.358Z,7.80
2019-04-28T05:39:53.892Z,7.93
2019-04-28T05:42:24.145Z,7.63
2019-04-28T05:44:54.467Z,7.20
2019-04-28T05:47:25.142Z,6.90
2019-04-28T05:50:14.338Z,7.20
2019-04-28T05:53:03.577Z,7.23
2019-04-28T05:56:02.018Z,6.87
2019-04-28T05:58:43.751Z,7.00
2019-04-28T06:01:50.625Z,6.97
2019-04-28T06:04:24.212Z,6.90
2019-04-28T06:06:59.742Z,6.53
2019-04-28T06:09:35.099Z,6.93
2019-04-28T06:12:07.474Z,6.60
2019-04-28T06:14:37.770Z,6.47
2019-04-28T06:17:08.046Z,6.93
2019-04-28T06:19:40.170Z,6.00
2019-04-28T06:22:10.313Z,6.47
2019-04-28T06:24:41.523Z,5.93
2019-04-28T06:27:11.825Z,6.13
2019-04-28T06:29:42.285Z,6.07
2019-04-28T06:32:12.567Z,5.00
2019-04-28T06:34:42.843Z,5.40
2019-04-28T06:37:13.141Z,5.60
2019-04-28T06:39:43.392Z,4.83
2019-04-28T06:42:15.627Z,4.90
2019-04-28T06:44:45.916Z,4.80
2019-04-28T06:47:16.901Z,4.50
2019-04-28T06:49:48.435Z,4.80
2019-04-28T06:52:18.993Z,4.60
2019-04-28T06:54:49.395Z,4.80
2019-04-28T06:57:19.917Z,4.80
2019-04-28T06:59:50.151Z,4.60
2019-04-28T07:02:21.418Z,4.30
2019-04-28T07:05:01.120Z,4.67
2019-04-28T07:07:24.844Z,4.53
2019-04-28T07:09:55.063Z,4.10
2019-04-28T07:12:25.680Z,4.00
2019-04-28T07:14:55.973Z,4.63
2019-04-28T07:17:34.567Z,4.00
2019-04-28T07:20:36.521Z,4.30
2019-04-28T07:23:07.394Z,4.47
2019-04-28T07:25:37.920Z,4.67
2019-04-28T07:28:08.311Z,4.17
2019-04-28T07:30:40.588Z,4.50
2019-04-28T07:33:10.902Z,4.20
2019-04-28T07:35:41.242Z,5.20
2019-04-28T07:38:11.461Z,4.47
2019-04-28T07:40:41.691Z,5.10
2019-04-28T07:43:12.260Z,4.73
2019-04-28T07:45:42.532Z,4.47
2019-04-28T07:48:12.780Z,5.30
2019-04-28T07:50:43.030Z,5.00
2019-04-28T07:53:18.632Z,5.00
2019-04-28T07:55:49.209Z,4.97
2019-04-28T07:58:19.736Z,5.70
2019-04-28T08:00:49.986Z,5.80
2019-04-28T08:03:20.801Z,5.50
2019-04-28T08:05:51.146Z,5.93
2019-04-28T08:08:22.622Z,6.20
2019-04-28T08:10:53.050Z,6.10
2019-04-28T08:13:23.482Z,7.23
2019-04-28T08:15:54.264Z,6.37
2019-04-28T08:18:24.642Z,6.30
2019-04-28T08:20:54.905Z,6.23
2019-04-28T08:23:25.282Z,6.80
2019-04-28T08:25:55.754Z,7.73
2019-04-28T08:28:26.090Z,8.03
2019-04-28T08:30:56.744Z,8.60
2019-04-28T08:34:01.380Z,8.37
2019-04-28T08:36:21.242Z,9.03
2019-04-28T08:38:51.497Z,9.10
2019-04-28T08:41:22.470Z,10.37
2019-04-28T08:43:52.822Z,9.37
2019-04-28T08:46:29.007Z,11.50
2019-04-28T08:48:59.459Z,10.93
2019-04-28T08:51:29.815Z,11.30
2019-04-28T08:54:00.279Z,10.73
2019-04-28T08:56:30.965Z,9.90
2019-04-28T08:59:01.625Z,10.03
2019-04-28T09:01:32.258Z,9.97
2019-04-28T09:04:14.851Z,9.33
2019-04-28T09:06:35.228Z,9.03
2019-04-28T09:09:11.837Z,8.63
2019-04-28T09:11:42.184Z,9.70
2019-04-28T09:14:13.102Z,9.63
2019-04-28T09:16:43.655Z,8.43
2019-04-28T09:19:14.491Z,10.63
2019-04-28T09:21:44.987Z,10.33
2019-04-28T09:24:15.583Z,9.13
2019-04-28T09:26:45.879Z,8.40
2019-04-28T09:29:16.353Z,8.13
2019-04-28T09:31:47.143Z,10.00
2019-04-28T09:34:27.837Z,11.40
2019-04-28T09:36:50.652Z,11.17
2019-04-28T09:39:41.956Z,10.70
2019-04-28T09:42:30.144Z,9.47
2019-04-28T09:45:01.739Z,10.00
2019-04-28T09:47:33.622Z,9.23
2019-04-28T09:50:05.105Z,9.27
2019-04-28T09:52:35.881Z,9.63
2019-04-28T09:55:07.296Z,9.00
2019-04-28T09:57:38.175Z,8.60
2019-04-28T10:00:09.763Z,8.23
2019-04-28T10:02:41.071Z,7.93
2019-04-28T10:05:12.417Z,8.57
2019-04-28T10:07:43.109Z,8.33
2019-04-28T10:10:13.870Z,8.73
2019-04-28T10:12:44.731Z,9.10
2019-04-28T10:15:15.554Z,8.90
2019-04-28T10:17:51.033Z,9.00
2019-04-28T10:20:24.528Z,8.47
2019-04-28T10:22:55.200Z,7.80
2019-04-28T10:25:25.933Z,7.73
2019-04-28T10:27:56.566Z,7.87
2019-04-28T10:30:26.924Z,7.10
2019-04-28T10:32:58.773Z,7.30
2019-04-28T10:35:29.651Z,7.90
2019-04-28T10:38:00.099Z,7.93
2019-04-28T10:40:37.872Z,7.43
2019-04-28T10:43:08.192Z,7.53
2019-04-28T10:45:47.085Z,7.60
2019-04-28T10:48:17.564Z,8.33
2019-04-28T10:50:48.214Z,8.07
2019-04-28T10:53:18.702Z,8.07
2019-04-28T10:55:49.205Z,7.70
2019-04-28T10:58:19.459Z,7.40
2019-04-28T11:00:49.725Z,7.40
2019-04-28T11:03:20.626Z,6.93
2019-04-28T11:05:50.947Z,7.03
2019-04-28T11:08:28.376Z,7.50
2019-04-28T11:10:59.635Z,7.20
2019-04-28T11:13:30.324Z,7.60
2019-04-28T11:16:01.134Z,6.47
2019-04-28T11:18:31.432Z,7.10
2019-04-28T11:21:01.960Z,6.13
2019-04-28T11:23:33.171Z,6.30
2019-04-28T11:26:03.884Z,6.50
2019-04-28T11:28:34.754Z,7.27
2019-04-28T11:31:05.379Z,6.63
2019-04-28T11:33:44.742Z,7.27
2019-04-28T11:36:17.629Z,6.90
2019-04-28T11:38:49.107Z,6.57
2019-04-28T11:41:19.626Z,6.30
2019-04-28T11:43:49.966Z,6.37
2019-04-28T11:46:22.256Z,6.43
2019-04-28T11:48:52.510Z,6.53
2019-04-28T11:51:23.130Z,6.50
2019-04-28T11:53:53.414Z,6.77
2019-04-28T11:56:24.020Z,6.80
2019-04-28T11:58:54.892Z,6.83
2019-04-28T12:01:25.374Z,6.90
2019-04-28T12:03:59.667Z,6.60
2019-04-28T12:06:30.150Z,7.33
2019-04-28T12:09:16.582Z,7.73
2019-04-28T12:11:50.256Z,7.67
2019-04-28T12:14:54.890Z,6.83
2019-04-28T12:17:44.096Z,7.33
2019-04-28T12:20:23.278Z,7.30
2019-04-28T12:22:53.514Z,6.60
2019-04-28T12:25:24.020Z,6.53
2019-04-28T12:27:54.374Z,6.80
2019-04-28T12:30:24.622Z,7.10
2019-04-28T12:32:55.020Z,6.80
2019-04-28T12:35:25.423Z,7.60
2019-04-28T12:37:55.780Z,6.57
2019-04-28T12:40:26.140Z,6.50
2019-04-28T12:42:56.426Z,6.27
2019-04-28T12:45:34.929Z,6.70
2019-04-28T12:47:58.802Z,5.73
2019-04-28T12:50:34.075Z,5.60
2019-04-28T12:53:04.258Z,6.17
2019-04-28T12:55:35.904Z,5.90
2019-04-28T12:58:07.422Z,5.77
2019-04-28T13:00:57.063Z,6.27
2019-04-28T13:03:37.415Z,5.97
2019-04-28T13:06:09.437Z,6.63
2019-04-28T13:08:39.882Z,6.23
2019-04-28T13:11:11.391Z,5.93
2019-04-28T13:13:46.629Z,6.13
2019-04-28T13:16:14.290Z,6.07
2019-04-28T13:18:44.529Z,6.07
2019-04-28T13:21:14.839Z,6.70
2019-04-28T13:23:45.697Z,6.33
2019-04-28T13:26:16.135Z,6.37
2019-04-28T13:28:46.731Z,6.33
2019-04-28T13:31:17.030Z,5.90
2019-04-28T13:33:55.837Z,6.30
2019-04-28T13:36:19.478Z,5.87
2019-04-28T13:38:49.780Z,6.60
2019-04-28T13:41:20.039Z,5.87
2019-04-28T13:43:50.583Z,5.60
2019-04-28T13:46:20.855Z,6.07
2019-04-28T13:48:51.460Z,5.57
2019-04-28T13:51:21.858Z,6.63
2019-04-28T13:53:52.242Z,6.73
2019-04-28T13:56:22.563Z,7.30
2019-04-28T13:58:59.209Z,8.07
2019-04-28T14:01:41.508Z,8.87
2019-04-28T14:04:29.437Z,7.60
2019-04-28T14:07:04.864Z,7.20
2019-04-28T14:09:38.599Z,7.47
2019-04-28T14:12:09.509Z,6.67
2019-04-28T14:14:40.332Z,7.10
2019-04-28T14:17:10.699Z,7.47
2019-04-28T14:19:41.010Z,8.53
2019-04-28T14:22:11.351Z,9.20
2019-04-28T14:24:43.706Z,7.90
2019-04-28T14:27:13.998Z,7.70
2019-04-28T14:29:45.967Z,7.67
2019-04-28T14:32:16.471Z,8.20
2019-04-28T14:34:47.240Z,8.37
2019-04-28T14:37:17.888Z,8.00
2019-04-28T14:39:48.240Z,8.57
2019-04-28T14:42:18.529Z,8.37
2019-04-28T14:44:49.195Z,7.10
2019-04-28T14:47:21.577Z,7.03
2019-04-28T14:49:51.868Z,7.97
2019-04-28T14:52:22.186Z,8.17
2019-04-28T14:54:52.607Z,7.50
2019-04-28T14:57:22.917Z,7.67
2019-04-28T14:59:53.502Z,8.57
2019-04-28T15:02:33.648Z,8.37
2019-04-28T15:05:26.285Z,10.20
2019-04-28T15:08:21.411Z,10.93
2019-04-28T15:11:01.037Z,10.33
2019-04-28T15:13:31.345Z,11.27
2019-04-28T15:16:01.936Z,12.27
2019-04-28T15:18:32.261Z,12.27
2019-04-28T15:21:02.899Z,12.83
2019-04-28T15:23:33.462Z,14.03
2019-04-28T15:26:04.124Z,15.47
2019-04-28T15:28:34.495Z,15.53
2019-04-28T15:31:05.019Z,15.73
2019-04-28T15:33:35.246Z,15.60
2019-04-28T15:36:06.906Z,12.43
2019-04-28T15:38:37.298Z,13.27
2019-04-28T15:41:20.559Z,11.30
2019-04-28T15:43:39.565Z,13.13
2019-04-28T15:46:10.076Z,13.73
2019-04-28T15:48:41.462Z,12.37
2019-04-28T15:51:12.204Z,11.90
2019-04-28T15:53:44.830Z,11.53
2019-04-28T15:56:33.988Z,11.37
2019-04-28T15:59:05.192Z,11.33
2019-04-28T16:01:35.962Z,10.63
2019-04-28T16:04:06.792Z,10.63
2019-04-28T16:06:38.292Z,10.30
2019-04-28T16:09:12.768Z,9.90
2019-04-28T16:11:43.913Z,10.27
2019-04-28T16:14:14.455Z,9.80
2019-04-28T16:16:44.777Z,10.20
2019-04-28T16:19:15.090Z,9.33
2019-04-28T16:21:45.580Z,9.47
2019-04-28T16:24:15.980Z,9.57
2019-04-28T16:26:46.384Z,9.50
2019-04-28T16:29:16.727Z,9.90
2019-04-28T16:31:47.234Z,9.20
2019-04-28T16:34:18.044Z,9.73
2019-04-28T16:36:48.348Z,9.47
2019-04-28T16:39:18.710Z,9.93
2019-04-28T16:41:50.817Z,12.20
2019-04-28T16:44:22.132Z,11.70
2019-04-28T16:46:52.457Z,12.13
2019-04-28T16:49:22.741Z,11.53
2019-04-28T16:51:53.114Z,11.07
2019-04-28T16:54:23.426Z,10.57
2019-04-28T16:57:06.768Z,10.23
2019-04-28T17:00:02.390Z,10.37
2019-04-28T17:02:44.835Z,11.97
2019-04-28T17:05:15.438Z,11.13
2019-04-28T17:07:52.417Z,11.30
2019-04-28T17:10:18.906Z,11.80
2019-04-28T17:12:50.251Z,12.13
2019-04-28T17:15:20.580Z,11.43
2019-04-28T17:17:51.046Z,11.07
2019-04-28T17:20:21.328Z,11.17
2019-04-28T17:22:51.637Z,11.03
2019-04-28T17:25:22.085Z,11.70
2019-04-28T17:27:52.381Z,13.07
2019-04-28T17:30:24.546Z,13.80
2019-04-28T17:32:54.950Z,14.60
2019-04-28T17:35:25.334Z,16.30
2019-04-28T17:38:06.402Z,15.83
2019-04-28T17:40:28.339Z,16.77
2019-04-28T17:42:58.684Z,16.60
2019-04-28T17:45:28.970Z,16.47
2019-04-28T17:48:04.238Z,16.17
2019-04-28T17:50:35.983Z,16.17
2019-04-28T17:53:06.893Z,16.47
2019-04-28T17:55:37.505Z,15.00
2019-04-28T17:58:07.946Z,15.83
2019-04-28T18:01:03.340Z,16.60
2019-04-28T18:03:58.496Z,17.67
2019-04-28T18:06:29.240Z,16.97
2019-04-28T18:09:00.166Z,18.73
2019-04-28T18:11:31.837Z,18.57
2019-04-28T18:14:04.088Z,18.00
2019-04-28T18:17:05.702Z,20.00
2019-04-28T18:19:36.536Z,19.90
2019-04-28T18:22:06.958Z,20.20
2019-04-28T18:24:39.944Z,20.00
2019-04-28T18:27:09.712Z,19.27
2019-04-28T18:29:40.212Z,24.10
2019-04-28T18:32:48.207Z,24.93
2019-04-28T18:35:25.856Z,26.50
2019-04-28T18:38:33.989Z,23.50
2019-04-28T18:41:03.712Z,23.37
2019-04-28T18:43:53.411Z,20.77
2019-04-28T18:46:27.575Z,21.13
2019-04-28T18:48:58.007Z,31.20
2019-04-28T18:51:29.362Z,22.53
2019-04-28T18:53:59.818Z,22.67
2019-04-28T18:56:30.360Z,23.33
2019-04-28T18:59:00.696Z,24.13
2019-04-28T19:01:43.027Z,32.80
2019-04-28T19:04:13.402Z,32.07
2019-04-28T19:06:44.085Z,29.93
2019-04-28T19:09:40.513Z,32.83
2019-04-28T19:12:18.521Z,30.73
2019-04-28T19:14:54.662Z,23.30
2019-04-28T19:17:31.893Z,27.43
2019-04-28T19:20:02.617Z,26.97
2019-04-28T19:22:44.250Z,26.03
2019-04-28T19:25:14.934Z,26.00
2019-04-28T19:27:45.255Z,26.93
2019-04-28T19:30:15.784Z,28.13
2019-04-28T19:32:46.327Z,28.27
2019-04-28T19:35:17.218Z,32.03
2019-04-28T19:37:47.602Z,29.67
2019-04-28T19:40:17.966Z,31.63
2019-04-28T19:42:48.739Z,30.97
2019-04-28T19:45:22.880Z,28.43
2019-04-28T19:47:53.353Z,32.07
2019-04-28T19:50:23.918Z,34.20
2019-04-28T19:52:56.438Z,34.10
2019-04-28T19:55:31.373Z,31.17
2019-04-28T19:58:20.693Z,30.90
2019-04-28T20:00:58.031Z,29.63
2019-04-28T20:03:28.560Z,29.53
2019-04-28T20:06:00.871Z,28.47
2019-04-28T20:08:31.498Z,31.67
2019-04-28T20:11:02.282Z,23.67
2019-04-28T20:13:32.766Z,23.63
2019-04-28T20:16:03.290Z,24.77
2019-04-28T20:18:33.711Z,21.30
2019-04-28T20:21:04.977Z,20.97
2019-04-28T20:23:35.622Z,21.40
2019-04-28T20:26:10.292Z,24.97
2019-04-28T20:28:42.111Z,23.33
2019-04-28T20:31:13.376Z,23.50
2019-04-28T20:33:43.760Z,25.90
2019-04-28T20:36:20.097Z,27.47
2019-04-28T20:38:53.004Z,26.23
2019-04-28T20:41:25.468Z,26.90
2019-04-28T20:43:57.141Z,26.00
2019-04-28T20:46:27.645Z,27.80
2019-04-28T20:49:00.146Z,30.73
2019-04-28T20:51:30.494Z,33.13
2019-04-28T20:54:01.201Z,34.37
2019-04-28T20:56:31.623Z,34.57
2019-04-28T20:59:02.803Z,34.63
2019-04-28T21:01:33.456Z,34.43
2019-04-28T21:04:04.003Z,30.70
2019-04-28T21:06:34.515Z,24.57
2019-04-28T21:09:09.475Z,27.37
2019-04-28T21:11:40.621Z,25.20
2019-04-28T21:14:10.907Z,25.70
2019-04-28T21:16:41.879Z,23.53
2019-04-28T21:19:13.209Z,24.70
2019-04-28T21:21:43.596Z,23.53
2019-04-28T21:24:16.938Z,23.10
2019-04-28T21:26:47.303Z,21.47
2019-04-28T21:29:17.743Z,21.67
2019-04-28T21:31:48.031Z,23.37
2019-04-28T21:34:19.940Z,23.87
2019-04-28T21:36:50.280Z,27.10
2019-04-28T21:39:20.624Z,31.70
2019-04-28T21:41:54.807Z,36.00
2019-04-28T21:44:42.120Z,41.07
2019-04-28T21:47:19.233Z,45.60
2019-04-28T21:49:49.699Z,52.90
2019-04-28T21:52:20.147Z,47.53
2019-04-28T21:54:50.555Z,58.33
2019-04-28T21:57:20.883Z,56.07
2019-04-28T21:59:51.399Z,52.03
2019-04-28T22:02:21.758Z,56.30
2019-04-28T22:04:52.153Z,54.30
2019-04-28T22:07:22.449Z,47.40
2019-04-28T22:09:53.124Z,45.60
2019-04-28T22:12:23.615Z,37.10
2019-04-28T22:14:54.130Z,41.17
2019-04-28T22:17:24.581Z,35.40
2019-04-28T22:19:58.848Z,36.27
2019-04-28T22:22:31.743Z,36.13
2019-04-28T22:25:09.311Z,34.13
2019-04-28T22:27:41.895Z,30.50
2019-04-28T22:30:14.757Z,31.63
2019-04-28T22:32:48.009Z,32.77
2019-04-28T22:35:18.800Z,32.07
2019-04-28T22:37:50.300Z,31.07
2019-04-28T22:40:20.897Z,30.17
2019-04-28T22:42:51.217Z,28.90
2019-04-28T22:45:24.735Z,29.40
2019-04-28T22:47:55.090Z,29.43
2019-04-28T22:50:46.421Z,28.97
2019-04-28T22:53:19.136Z,29.33
2019-04-28T22:55:58.816Z,30.37
2019-04-28T22:58:53.884Z,31.43
2019-04-28T23:01:33.297Z,34.07
2019-04-28T23:04:13.328Z,36.63
2019-04-28T23:06:43.875Z,40.40
2019-04-28T23:09:17.320Z,44.33
2019-04-28T23:11:47.781Z,42.77
2019-04-28T23:14:18.891Z,43.47
2019-04-28T23:16:49.412Z,44.23
2019-04-28T23:19:21.390Z,43.13
2019-04-28T23:22:15.553Z,44.40
2019-04-28T23:24:48.868Z,45.60
2019-04-28T23:27:20.125Z,43.60
2019-04-28T23:29:51.590Z,43.70
2019-04-28T23:32:23.021Z,42.47
2019-04-28T23:34:56.723Z,40.27
2019-04-28T23:37:27.039Z,38.17
2019-04-28T23:39:57.318Z,41.00
2019-04-28T23:42:35.559Z,35.90
2019-04-28T23:45:07.166Z,34.83
2019-04-28T23:47:37.592Z,34.07
2019-04-28T23:50:10.247Z,33.63
2019-04-28T23:52:45.459Z,35.43
2019-04-28T23:55:16.308Z,32.70
2019-04-28T23:57:46.594Z,33.90
